Time;durP1;ratioP1;P1;durP2;ratioP2;P2;SDS_P1;SDS_P2;PMS_P1;PMS_P2;Temp;Humidity;BMP_temperature;BMP_pressure;BME280_temperature;BME280_humidity;BME280_pressure;Samples;Min_cycle;Max_cycle;Signal;HPM_P1;HPM_P2
2022/08/30 02:46:21;;;;;;;6.70;3.75;;;17.10;99.90;;;;;;5909755;23;83320;-70
2022/08/30 02:48:47;;;;;;;7.93;3.15;;;17.10;99.90;;;;;;4952044;28;82194;-73
2022/08/30 02:51:13;;;;;;;5.55;3.33;;;17.10;99.90;;;;;;4963017;28;81185;-72
2022/08/30 02:53:42;;;;;;;5.32;3.03;;;17.10;99.90;;;;;;4935568;28;81172;-73
2022/08/30 02:56:08;;;;;;;7.15;3.35;;;17.10;99.90;;;;;;4959912;28;81977;-72
2022/08/30 02:58:35;;;;;;;8.02;4.75;;;17.00;99.90;;;;;;4941103;28;84452;-72
2022/08/30 03:01:00;;;;;;;6.03;3.33;;;17.10;99.90;;;;;;4960360;28;82869;-72
2022/08/30 03:03:26;;;;;;;6.15;3.55;;;17.00;99.90;;;;;;4960435;28;81556;-73
2022/08/30 03:05:52;;;;;;;7.22;3.65;;;17.00;99.90;;;;;;4959823;28;81918;-71
2022/08/30 03:08:17;;;;;;;6.35;3.53;;;16.80;99.90;;;;;;4959653;28;82227;-72
2022/08/30 03:10:43;;;;;;;8.30;3.80;;;16.80;99.90;;;;;;4960174;28;82268;-70
2022/08/30 03:13:09;;;;;;;6.60;3.20;;;16.80;99.90;;;;;;4960398;28;81476;-71
2022/08/30 03:15:37;;;;;;;6.07;3.50;;;16.80;99.90;;;;;;4960196;28;81770;-71
2022/08/30 03:18:02;;;;;;;8.80;3.13;;;16.70;99.90;;;;;;4950581;28;81530;-70
2022/08/30 03:20:29;;;;;;;6.15;3.33;;;16.70;99.90;;;;;;4956378;28;81954;-71
2022/08/30 03:22:54;;;;;;;8.27;3.63;;;16.80;99.90;;;;;;4960018;28;82760;-72
2022/08/30 03:25:21;;;;;;;6.82;3.20;;;16.80;99.90;;;;;;4956508;28;81889;-71
2022/08/30 03:27:49;;;;;;;5.68;3.50;;;16.70;99.90;;;;;;4960819;28;82118;-71
2022/08/30 03:30:16;;;;;;;10.85;3.85;;;16.70;99.90;;;;;;4960492;28;82170;-74
2022/08/30 03:32:42;;;;;;;6.45;3.70;;;16.70;99.90;;;;;;4966455;28;81674;-72
2022/08/30 03:35:08;;;;;;;6.63;3.65;;;16.60;99.90;;;;;;4954959;28;82389;-70
2022/08/30 03:37:35;;;;;;;9.23;3.60;;;16.70;99.90;;;;;;4966531;28;82076;-73
2022/08/30 03:40:02;;;;;;;7.43;3.78;;;16.70;99.90;;;;;;4948120;28;83621;-71
2022/08/30 03:42:28;;;;;;;6.63;3.75;;;16.70;99.90;;;;;;4956367;28;81608;-69
2022/08/30 03:44:54;;;;;;;6.68;3.90;;;16.70;99.90;;;;;;4961921;28;81923;-71
2022/08/30 03:47:20;;;;;;;6.97;3.65;;;16.70;99.90;;;;;;4963593;28;82638;-72
2022/08/30 03:49:46;;;;;;;8.68;3.90;;;16.70;99.90;;;;;;4958755;28;82095;-73
2022/08/30 03:52:11;;;;;;;7.47;3.45;;;16.70;99.90;;;;;;4948805;28;81850;-72
2022/08/30 03:54:39;;;;;;;8.10;3.13;;;16.70;99.90;;;;;;4960730;28;82361;-71
2022/08/30 03:57:05;;;;;;;5.95;3.42;;;16.70;99.90;;;;;;4960004;28;81499;-71
2022/08/30 03:59:31;;;;;;;10.55;3.75;;;16.70;99.90;;;;;;4943130;28;81948;-72
2022/08/30 04:01:57;;;;;;;7.97;3.60;;;16.70;99.90;;;;;;4927172;28;81618;-71
2022/08/30 04:04:24;;;;;;;10.57;4.47;;;16.60;99.90;;;;;;4959276;28;81290;-73
2022/08/30 04:06:50;;;;;;;7.00;4.07;;;16.60;99.90;;;;;;4959550;28;82207;-71
2022/08/30 04:09:16;;;;;;;5.43;3.22;;;16.60;99.90;;;;;;4951404;28;82155;-72
2022/08/30 04:11:42;;;;;;;5.93;3.30;;;16.60;99.90;;;;;;4960599;28;82418;-74
2022/08/30 04:14:08;;;;;;;8.85;4.20;;;16.50;99.90;;;;;;4940434;28;83325;-72
2022/08/30 04:16:34;;;;;;;6.97;3.38;;;16.50;99.90;;;;;;4961146;28;81317;-72
2022/08/30 04:18:59;;;;;;;5.82;3.72;;;16.50;99.90;;;;;;4949471;28;81771;-71
2022/08/30 04:21:25;;;;;;;5.45;3.05;;;16.50;99.90;;;;;;4948194;28;81536;-72
2022/08/30 04:23:51;;;;;;;7.25;3.40;;;16.50;99.90;;;;;;4951269;28;81734;-71
2022/08/30 04:26:17;;;;;;;6.28;3.67;;;16.50;99.90;;;;;;4961875;28;83460;-71
2022/08/30 04:28:43;;;;;;;6.25;3.35;;;16.50;99.90;;;;;;4955469;28;81789;-74
2022/08/30 04:31:11;;;;;;;8.93;3.40;;;16.40;99.90;;;;;;4944288;28;82058;-74
2022/08/30 04:33:37;;;;;;;6.60;3.15;;;16.50;99.90;;;;;;4962586;28;81628;-73
2022/08/30 04:36:05;;;;;;;6.93;3.45;;;16.60;99.90;;;;;;4961766;28;83566;-72
2022/08/30 04:38:32;;;;;;;12.38;5.22;;;16.60;99.90;;;;;;4962448;28;83374;-71
2022/08/30 04:40:58;;;;;;;12.00;5.38;;;16.50;99.90;;;;;;4967038;28;81537;-72
2022/08/30 04:43:25;;;;;;;13.85;4.72;;;16.50;99.90;;;;;;4953717;28;81852;-74
2022/08/30 04:45:52;;;;;;;8.13;3.80;;;16.50;99.90;;;;;;4955255;28;82185;-72
2022/08/30 04:48:18;;;;;;;7.90;4.13;;;16.70;99.90;;;;;;4947610;28;82262;-71
2022/08/30 04:50:44;;;;;;;11.23;4.35;;;16.70;99.90;;;;;;4947591;28;81617;-70
2022/08/30 04:53:10;;;;;;;7.57;4.05;;;16.60;99.90;;;;;;4951997;28;81088;-75
2022/08/30 04:55:38;;;;;;;8.07;4.30;;;16.60;99.90;;;;;;4949369;28;82173;-73
2022/08/30 04:58:05;;;;;;;10.43;3.78;;;16.60;99.90;;;;;;4961420;28;82234;-71
2022/08/30 05:00:31;;;;;;;8.38;3.83;;;16.80;99.90;;;;;;4961900;28;82037;-71
2022/08/30 05:02:57;;;;;;;6.03;3.65;;;16.80;99.90;;;;;;4941304;28;83239;-77
2022/08/30 05:05:41;;;;;;;10.20;3.85;;;16.80;99.90;;;;;;4961418;28;81998;-71
2022/08/30 05:08:08;;;;;;;6.22;3.63;;;16.70;99.90;;;;;;4948925;28;81946;-75
2022/08/30 05:10:40;;;;;;;9.50;3.60;;;16.80;99.90;;;;;;4960606;28;81487;-74
2022/08/30 05:13:06;;;;;;;8.05;3.53;;;17.00;99.90;;;;;;4958237;28;81602;-75
2022/08/30 05:15:33;;;;;;;5.95;3.30;;;17.30;99.90;;;;;;4941527;28;82983;-77
2022/08/30 05:17:58;;;;;;;7.88;3.50;;;17.50;99.90;;;;;;4946082;28;81173;-78
2022/08/30 05:20:25;;;;;;;8.23;3.38;;;17.90;99.90;;;;;;4955501;28;82194;-76
2022/08/30 05:22:51;;;;;;;11.40;3.50;;;18.20;99.90;;;;;;4957995;28;81961;-74
2022/08/30 05:25:22;;;;;;;7.50;3.53;;;18.70;99.90;;;;;;4960365;28;83158;-76
2022/08/30 05:27:48;;;;;;;9.10;3.13;;;19.20;99.90;;;;;;4956053;28;82117;-75
2022/08/30 05:30:15;;;;;;;6.70;3.00;;;19.70;99.30;;;;;;4953843;28;81675;-75
2022/08/30 05:32:42;;;;;;;5.30;2.92;;;20.00;97.90;;;;;;4962797;28;82077;-76
2022/08/30 05:35:09;;;;;;;7.32;3.38;;;20.20;96.50;;;;;;4964441;28;81868;-76
2022/08/30 05:37:36;;;;;;;7.03;3.13;;;20.20;95.30;;;;;;4959122;28;81935;-77
2022/08/30 05:40:03;;;;;;;7.78;3.15;;;20.30;94.70;;;;;;4957926;28;81485;-75
2022/08/30 05:42:28;;;;;;;8.75;2.65;;;20.60;93.80;;;;;;4957136;28;82191;-76
2022/08/30 05:44:54;;;;;;;5.32;2.47;;;21.50;91.00;;;;;;4958550;28;82034;-75
2022/08/30 05:47:21;;;;;;;7.20;2.90;;;22.00;90.30;;;;;;4954538;28;81254;-75
2022/08/30 05:49:47;;;;;;;5.32;2.97;;;22.30;85.20;;;;;;4954373;28;82225;-75
2022/08/30 05:52:16;;;;;;;6.22;2.97;;;22.40;83.20;;;;;;4961219;28;81940;-76
2022/08/30 05:54:43;;;;;;;5.47;2.75;;;22.10;84.80;;;;;;4959861;28;82099;-77
2022/08/30 05:57:09;;;;;;;4.35;2.78;;;21.60;86.70;;;;;;4958404;28;82304;-76
2022/08/30 05:59:35;;;;;;;8.02;2.65;;;22.80;86.30;;;;;;4962445;28;81831;-76
2022/08/30 06:02:00;;;;;;;4.70;2.55;;;24.30;80.20;;;;;;4954703;28;81826;-76
2022/08/30 06:04:26;;;;;;;6.22;2.40;;;25.70;74.30;;;;;;4961161;28;81606;-74
2022/08/30 06:06:52;;;;;;;5.03;2.85;;;26.80;69.20;;;;;;4959389;28;81406;-77
2022/08/30 06:09:19;;;;;;;7.18;2.78;;;26.90;65.00;;;;;;4959941;28;81660;-75
2022/08/30 06:11:45;;;;;;;8.52;3.20;;;27.50;64.20;;;;;;4965506;28;81810;-74
2022/08/30 06:14:12;;;;;;;4.53;3.17;;;27.70;61.20;;;;;;4957650;28;83335;-74
2022/08/30 06:16:39;;;;;;;4.25;2.45;;;26.80;64.10;;;;;;4963312;28;83518;-75
2022/08/30 06:19:07;;;;;;;5.10;3.97;;;27.30;65.50;;;;;;4959612;28;81901;-77
2022/08/30 06:21:35;;;;;;;9.20;2.97;;;28.70;62.40;;;;;;4958958;28;81912;-78
2022/08/30 06:24:02;;;;;;;4.85;3.90;;;28.50;60.00;;;;;;4958939;28;82580;-75
2022/08/30 06:26:28;;;;;;;7.97;2.55;;;29.40;59.30;;;;;;4961546;28;83835;-77
2022/08/30 06:28:56;;;;;;;6.10;2.70;;;31.00;57.00;;;;;;4962278;28;82348;-77
2022/08/30 06:31:23;;;;;;;5.90;2.85;;;32.50;53.30;;;;;;4940973;28;83164;-73
2022/08/30 06:33:50;;;;;;;6.93;3.13;;;33.20;53.80;;;;;;4959115;28;82287;-73
2022/08/30 06:36:19;;;;;;;6.75;3.15;;;34.30;51.00;;;;;;4939383;28;84167;-74
2022/08/30 06:38:49;;;;;;;4.80;3.13;;;34.80;48.80;;;;;;4958166;28;82699;-76
2022/08/30 06:41:18;;;;;;;6.13;3.42;;;33.90;49.90;;;;;;4959335;28;81842;-74
2022/08/30 06:43:44;;;;;;;8.00;4.60;;;32.30;51.00;;;;;;4959088;28;82207;-77
2022/08/30 06:46:13;;;;;;;6.13;3.67;;;30.60;54.00;;;;;;4962929;28;81928;-74
2022/08/30 06:48:39;;;;;;;4.40;2.95;;;29.00;58.00;;;;;;4959375;28;81589;-74
2022/08/30 06:51:05;;;;;;;6.65;3.95;;;28.30;61.40;;;;;;4959176;28;81490;-76
2022/08/30 06:53:32;;;;;;;6.05;4.00;;;29.00;59.20;;;;;;4958570;28;82391;-73
2022/08/30 06:56:06;;;;;;;7.05;3.75;;;30.00;58.30;;;;;;4959437;28;81955;-76
2022/08/30 06:58:34;;;;;;;4.50;3.08;;;30.30;55.60;;;;;;4933946;28;83006;-73
2022/08/30 07:00:59;;;;;;;7.28;3.97;;;30.30;56.60;;;;;;4958744;28;81564;-73
2022/08/30 07:03:26;;;;;;;6.85;3.70;;;29.70;57.20;;;;;;4958364;28;82970;-75
2022/08/30 07:05:53;;;;;;;5.75;3.53;;;29.20;59.50;;;;;;4960558;28;82972;-75
2022/08/30 07:08:19;;;;;;;6.78;3.53;;;31.10;57.20;;;;;;4958543;28;81444;-77
2022/08/30 07:10:45;;;;;;;7.32;3.45;;;33.20;53.10;;;;;;4963315;28;81741;-74
2022/08/30 07:13:11;;;;;;;5.22;3.70;;;34.10;51.80;;;;;;4958199;28;81457;-76
2022/08/30 07:15:41;;;;;;;8.90;4.50;;;35.00;49.70;;;;;;4957626;28;82014;-75
2022/08/30 07:20:52;;;;;;;5.50;4.35;;;35.70;48.50;;;;;;4957800;28;81439;-75
2022/08/30 07:23:18;;;;;;;6.95;4.25;;;35.90;47.30;;;;;;4939734;28;85139;-77
2022/08/30 07:25:43;;;;;;;5.85;3.70;;;35.30;47.70;;;;;;4958348;28;82660;-76
2022/08/30 07:28:10;;;;;;;7.90;3.78;;;36.20;47.00;;;;;;4944833;28;82392;-77
2022/08/30 07:30:37;;;;;;;6.60;4.53;;;36.50;45.50;;;;;;4961530;28;82705;-77
2022/08/30 07:33:03;;;;;;;5.18;4.25;;;34.50;48.40;;;;;;4961216;28;81887;-76
2022/08/30 07:35:31;;;;;;;9.30;4.65;;;35.60;48.10;;;;;;4958708;28;81990;-74
2022/08/30 07:37:57;;;;;;;5.65;4.57;;;37.60;43.20;;;;;;4960517;28;81842;-80
2022/08/30 07:40:23;;;;;;;5.15;3.78;;;38.90;42.50;;;;;;4961020;28;82879;-76
2022/08/30 07:42:49;;;;;;;7.38;3.90;;;37.70;42.90;;;;;;4960885;28;82217;-73
2022/08/30 07:45:15;;;;;;;7.00;3.45;;;36.30;43.70;;;;;;4953078;28;83770;-74
2022/08/30 07:47:41;;;;;;;6.85;3.42;;;35.10;48.00;;;;;;4960763;28;81441;-79
2022/08/30 07:50:07;;;;;;;5.50;3.88;;;37.50;44.00;;;;;;4961607;28;82210;-75
2022/08/30 07:52:34;;;;;;;7.28;4.28;;;39.00;41.80;;;;;;4959941;28;83096;-75
2022/08/30 07:55:00;;;;;;;5.47;3.78;;;39.60;41.50;;;;;;4960127;28;82843;-74
2022/08/30 07:57:27;;;;;;;14.38;4.80;;;39.50;40.20;;;;;;4960635;28;81868;-74
2022/08/30 07:59:53;;;;;;;8.15;3.05;;;37.30;41.80;;;;;;4961121;28;81471;-74
2022/08/30 08:02:19;;;;;;;5.45;3.40;;;37.70;43.30;;;;;;4960203;28;82808;-79
2022/08/30 08:04:46;;;;;;;7.68;3.05;;;39.40;40.60;;;;;;4965186;28;82081;-77
2022/08/30 08:07:12;;;;;;;3.60;3.03;;;38.50;40.30;;;;;;4960434;28;81136;-78
2022/08/30 08:09:38;;;;;;;4.38;3.13;;;36.90;40.70;;;;;;4943275;28;83790;-75
2022/08/30 08:12:05;;;;;;;6.53;3.13;;;35.00;43.20;;;;;;4960281;28;82013;-76
2022/08/30 08:14:32;;;;;;;3.83;3.03;;;34.40;44.40;;;;;;4942572;28;83643;-74
2022/08/30 08:16:57;;;;;;;3.97;3.53;;;33.30;46.50;;;;;;4965273;28;82442;-74
2022/08/30 08:19:23;;;;;;;3.05;2.40;;;35.30;44.40;;;;;;4942830;28;82950;-78
2022/08/30 08:21:49;;;;;;;5.75;3.15;;;38.00;41.90;;;;;;4960267;28;82146;-75
2022/08/30 08:24:15;;;;;;;4.28;3.28;;;38.60;39.90;;;;;;4959837;28;82224;-75
2022/08/30 08:26:41;;;;;;;4.20;3.05;;;40.20;40.10;;;;;;4960749;28;81543;-79
2022/08/30 08:29:08;;;;;;;5.55;3.58;;;42.10;39.80;;;;;;4959147;28;81536;-76
2022/08/30 08:31:35;;;;;;;5.45;4.30;;;44.00;38.70;;;;;;4965666;28;82179;-74
2022/08/30 08:34:04;;;;;;;7.40;3.67;;;45.30;34.60;;;;;;4956034;28;81353;-76
2022/08/30 08:36:30;;;;;;;8.93;4.03;;;45.00;34.80;;;;;;4960183;28;82017;-77
2022/08/30 08:38:57;;;;;;;4.18;3.53;;;44.10;35.50;;;;;;4959550;28;82437;-78
2022/08/30 08:41:40;;;;;;;5.75;4.57;;;45.60;34.80;;;;;;4959874;28;83292;-77
2022/08/30 08:44:51;;;;;;;5.18;4.68;;;47.30;32.60;;;;;;4959275;28;81978;-77
2022/08/30 08:47:24;;;;;;;7.28;5.63;;;48.20;31.30;;;;;;4892865;28;81825;-77
2022/08/30 08:49:54;;;;;;;5.18;4.68;;;47.20;31.40;;;;;;4880061;28;81939;-79
2022/08/30 08:55:51;;;;;;;5.82;5.05;;;48.20;31.20;;;;;;4922229;28;81179;-76
2022/08/30 08:58:28;;;;;;;6.57;5.93;;;47.40;30.50;;;;;;4940969;28;81727;-77
2022/08/30 09:00:57;;;;;;;6.55;5.78;;;47.70;30.60;;;;;;4941516;28;81780;-77
2022/08/30 09:03:26;;;;;;;10.18;6.13;;;47.80;30.40;;;;;;4934072;28;82666;-74
2022/08/30 09:05:54;;;;;;;8.07;7.18;;;48.20;31.10;;;;;;4940950;28;82064;-76
2022/08/30 09:08:22;;;;;;;7.28;6.57;;;48.40;30.50;;;;;;4939998;28;82309;-77
2022/08/30 09:11:01;;;;;;;7.22;6.57;;;49.60;30.30;;;;;;4940974;28;83033;-77
2022/08/30 09:13:27;;;;;;;7.32;5.97;;;50.20;30.00;;;;;;4939875;28;82269;-80
2022/08/30 09:15:55;;;;;;;7.75;7.15;;;50.70;29.60;;;;;;4941263;28;81872;-76
2022/08/30 09:18:42;;;;;;;9.13;8.27;;;50.70;29.00;;;;;;4943562;28;81376;-76
2022/08/30 09:21:08;;;;;;;9.55;8.63;;;50.80;30.10;;;;;;4932632;28;81822;-76
2022/08/30 09:23:34;;;;;;;9.50;8.68;;;50.90;30.00;;;;;;4940253;28;81746;-77
2022/08/30 09:26:08;;;;;;;9.75;8.82;;;51.10;30.00;;;;;;4940042;28;81170;-80
2022/08/30 09:28:48;;;;;;;6.80;6.20;;;51.00;30.30;;;;;;4938280;28;82070;-79
2022/08/30 09:31:23;;;;;;;9.57;8.60;;;50.10;31.10;;;;;;4939756;28;82449;-77
2022/08/30 09:34:15;;;;;;;12.85;11.75;;;50.80;30.70;;;;;;4939243;28;83205;-78
2022/08/30 09:36:52;;;;;;;8.27;7.30;;;51.20;30.00;;;;;;4934819;28;84587;-80
2022/08/30 09:39:29;;;;;;;9.13;8.32;;;49.90;31.80;;;;;;4934593;28;82875;-77
2022/08/30 09:42:12;;;;;;;9.57;8.70;;;49.70;31.80;;;;;;4940116;28;81987;-80
2022/08/30 09:44:38;;;;;;;12.32;11.10;;;48.80;32.00;;;;;;4939506;28;85226;-77
2022/08/30 09:47:05;;;;;;;13.13;11.82;;;49.90;31.30;;;;;;4946895;28;82189;-79
2022/08/30 09:49:41;;;;;;;9.95;8.93;;;50.40;31.10;;;;;;4940140;28;83801;-80
2022/08/30 09:52:13;;;;;;;10.40;9.48;;;50.30;30.60;;;;;;4958086;28;81603;-76
2022/08/30 09:54:44;;;;;;;8.48;7.63;;;49.30;30.80;;;;;;4959243;28;82233;-77
2022/08/30 09:57:27;;;;;;;8.80;8.00;;;49.60;30.90;;;;;;4958961;28;81407;-75
2022/08/30 10:00:03;;;;;;;9.50;8.27;;;48.60;32.70;;;;;;4958707;28;82377;-78
2022/08/30 10:03:01;;;;;;;10.07;8.50;;;48.20;32.60;;;;;;4954276;28;82287;-74
2022/08/30 10:05:36;;;;;;;10.60;7.93;;;47.00;34.70;;;;;;4948971;28;84399;-77
2022/08/30 10:08:10;;;;;;;7.65;7.05;;;46.60;33.80;;;;;;4951289;28;82475;-75
2022/08/30 10:10:59;;;;;;;8.70;7.75;;;46.70;33.90;;;;;;4958713;28;81753;-76
2022/08/30 10:13:37;;;;;;;8.43;7.63;;;46.80;33.90;;;;;;4954994;28;81584;-74
2022/08/30 10:16:42;;;;;;;6.85;6.22;;;45.20;35.10;;;;;;4954651;28;82063;-77
2022/08/30 10:19:24;;;;;;;5.60;5.10;;;43.20;35.90;;;;;;4955126;28;81668;-77
2022/08/30 10:21:52;;;;;;;6.85;6.15;;;41.20;38.20;;;;;;4958972;28;81538;-74
2022/08/30 10:24:23;;;;;;;7.38;5.70;;;38.90;40.00;;;;;;4957124;28;82046;-77
2022/08/30 10:27:12;;;;;;;5.72;4.88;;;37.20;43.90;;;;;;4956907;28;82760;-76
2022/08/30 10:29:47;;;;;;;7.90;5.97;;;36.00;45.20;;;;;;4956984;28;82043;-76
2022/08/30 10:32:42;;;;;;;5.65;4.78;;;34.50;48.50;;;;;;4958154;28;81711;-75
2022/08/30 10:35:24;;;;;;;6.85;4.63;;;33.50;49.60;;;;;;4930866;28;82058;-74
2022/08/30 10:38:04;;;;;;;6.63;4.70;;;33.20;50.30;;;;;;4951558;28;82535;-75
2022/08/30 10:43:27;;;;;;;6.07;3.60;;;33.40;49.50;;;;;;4950837;28;81527;-76
2022/08/30 10:45:57;;;;;;;3.97;3.33;;;33.90;49.40;;;;;;4950960;28;81673;-76
2022/08/30 10:48:29;;;;;;;6.40;3.47;;;33.50;47.20;;;;;;4955947;28;82153;-77
2022/08/30 10:51:01;;;;;;;5.47;3.38;;;33.70;48.50;;;;;;4956535;28;81988;-74
2022/08/30 10:53:49;;;;;;;8.15;3.83;;;33.80;49.90;;;;;;4955249;28;82618;-78
2022/08/30 10:56:20;;;;;;;5.28;3.53;;;33.40;49.90;;;;;;4959298;28;83365;-77
2022/08/30 10:58:46;;;;;;;5.57;3.53;;;33.40;49.60;;;;;;4965002;28;82471;-76
2022/08/30 11:01:24;;;;;;;4.30;3.28;;;33.00;49.60;;;;;;4958490;28;82376;-74
2022/08/30 11:04:12;;;;;;;6.10;3.15;;;33.20;50.00;;;;;;4951243;28;81456;-74
2022/08/30 11:07:01;;;;;;;6.55;5.07;;;33.00;49.80;;;;;;4960517;28;81556;-77
2022/08/30 11:10:01;;;;;;;4.40;3.97;;;32.20;50.70;;;;;;4958561;28;81582;-74
2022/08/30 11:12:49;;;;;;;5.43;4.40;;;31.80;52.40;;;;;;4954192;28;81989;-77
2022/08/30 11:15:30;;;;;;;4.85;3.35;;;31.50;52.20;;;;;;4958072;28;82130;-76
2022/08/30 11:18:10;;;;;;;3.80;2.67;;;31.60;53.80;;;;;;4961846;28;81135;-75
2022/08/30 11:20:49;;;;;;;3.75;2.83;;;32.00;53.40;;;;;;4948602;28;83560;-78
2022/08/30 11:23:18;;;;;;;7.15;3.28;;;32.10;52.80;;;;;;4957257;28;82584;-77
2022/08/30 11:25:49;;;;;;;5.10;2.90;;;32.00;52.20;;;;;;4963802;28;81758;-77
2022/08/30 11:28:35;;;;;;;3.95;2.78;;;31.10;54.20;;;;;;4958623;28;81879;-77
2022/08/30 11:31:11;;;;;;;4.15;2.72;;;31.50;51.50;;;;;;4932746;28;81583;-76
2022/08/30 11:33:48;;;;;;;3.58;2.83;;;31.50;53.00;;;;;;4953573;28;82093;-76
2022/08/30 11:36:29;;;;;;;4.28;2.95;;;31.40;50.80;;;;;;4963153;28;81504;-74
2022/08/30 11:38:55;;;;;;;4.43;2.97;;;31.40;53.80;;;;;;4949084;28;82770;-76
2022/08/30 11:41:40;;;;;;;5.18;2.80;;;31.50;53.60;;;;;;4954742;28;82258;-75
2022/08/30 11:44:33;;;;;;;3.47;2.78;;;31.20;53.90;;;;;;4949696;28;82895;-77
2022/08/30 11:47:01;;;;;;;6.53;3.30;;;30.90;54.90;;;;;;4952729;28;82531;-75
2022/08/30 11:49:56;;;;;;;4.38;2.90;;;30.90;56.20;;;;;;4950707;28;82056;-76
2022/08/30 11:52:56;;;;;;;6.00;2.92;;;30.90;54.50;;;;;;4951595;28;82014;-76
2022/08/30 11:55:39;;;;;;;5.40;2.97;;;30.90;54.20;;;;;;4945339;28;81536;-77
2022/08/30 11:58:11;;;;;;;5.22;3.15;;;30.80;54.60;;;;;;4953493;28;81638;-73
2022/08/30 12:00:44;;;;;;;4.28;3.33;;;30.10;56.10;;;;;;4955582;28;81906;-73
2022/08/30 12:03:20;;;;;;;4.85;2.85;;;29.90;58.00;;;;;;4956691;28;82194;-76
2022/08/30 12:05:51;;;;;;;5.95;3.47;;;29.80;59.50;;;;;;4956476;28;81891;-76
2022/08/30 12:08:22;;;;;;;5.60;4.22;;;29.90;56.20;;;;;;4957351;28;81332;-74
2022/08/30 12:10:54;;;;;;;5.20;2.70;;;29.80;56.30;;;;;;4950197;28;81506;-76
2022/08/30 12:13:35;;;;;;;7.18;2.83;;;29.50;56.60;;;;;;4955892;28;83185;-73
2022/08/30 12:16:22;;;;;;;6.32;3.15;;;29.30;59.00;;;;;;4958281;28;83778;-76
2022/08/30 12:18:59;;;;;;;3.97;3.08;;;29.40;57.00;;;;;;4959628;28;81527;-74
2022/08/30 12:21:33;;;;;;;5.07;3.67;;;29.60;56.70;;;;;;4958539;28;81676;-78
2022/08/30 12:24:02;;;;;;;5.15;2.78;;;29.70;57.40;;;;;;4942798;28;81921;-76
2022/08/30 12:26:28;;;;;;;5.63;3.03;;;29.80;57.80;;;;;;4955443;28;81956;-73
2022/08/30 12:29:23;;;;;;;4.85;3.15;;;29.90;55.90;;;;;;4948217;28;81861;-73
2022/08/30 12:32:15;;;;;;;5.57;3.28;;;29.80;56.60;;;;;;4955944;28;81750;-74
2022/08/30 12:34:41;;;;;;;3.83;2.72;;;29.90;57.90;;;;;;4954894;28;82212;-75
2022/08/30 12:37:26;;;;;;;4.13;3.33;;;29.80;55.90;;;;;;4945911;28;82014;-73
2022/08/30 12:40:20;;;;;;;5.25;2.97;;;29.40;57.80;;;;;;4956481;28;83270;-73
2022/08/30 12:43:03;;;;;;;6.53;3.20;;;29.50;58.80;;;;;;4953451;28;82415;-71
2022/08/30 12:45:37;;;;;;;5.65;3.40;;;29.10;59.60;;;;;;4958781;28;82240;-73
2022/08/30 12:48:06;;;;;;;6.15;4.57;;;29.20;61.80;;;;;;4947860;28;82073;-78
2022/08/30 12:50:36;;;;;;;;;;;29.20;60.00;;;;;;4961760;28;82535;-76
2022/08/30 12:53:05;;;;;;;5.18;3.15;;;29.20;60.60;;;;;;4961858;28;82052;-76
2022/08/30 12:55:35;;;;;;;6.38;3.30;;;29.10;60.50;;;;;;4960144;28;82188;-73
2022/08/30 12:58:08;;;;;;;5.80;3.33;;;29.00;60.00;;;;;;4961094;28;81892;-75
2022/08/30 13:00:39;;;;;;;6.50;2.90;;;29.20;59.60;;;;;;4961577;28;81725;-75
2022/08/30 13:03:35;;;;;;;7.47;4.35;;;29.10;59.60;;;;;;4959562;28;81761;-74
2022/08/30 13:06:02;;;;;;;5.35;3.63;;;29.20;59.90;;;;;;4957944;28;82806;-75
2022/08/30 13:08:35;;;;;;;5.07;3.15;;;29.20;61.80;;;;;;4961750;28;82479;-79
2022/08/30 13:11:21;;;;;;;6.20;3.28;;;29.40;61.20;;;;;;4955773;28;81565;-73
2022/08/30 13:13:59;;;;;;;4.30;2.67;;;29.70;60.80;;;;;;4950644;28;81884;-78
2022/08/30 13:16:34;;;;;;;4.38;2.97;;;29.50;59.70;;;;;;4959664;28;82374;-75
2022/08/30 13:19:34;;;;;;;4.82;2.92;;;29.50;59.20;;;;;;4960266;28;81682;-77
2022/08/30 13:22:01;;;;;;;10.68;3.00;;;29.50;59.70;;;;;;4960373;28;82353;-74
2022/08/30 13:24:27;;;;;;;7.95;3.20;;;29.40;61.80;;;;;;4960890;28;82031;-77
2022/08/30 13:26:57;;;;;;;5.45;3.38;;;29.10;61.10;;;;;;4960839;28;82214;-73
2022/08/30 13:29:25;;;;;;;7.07;3.47;;;29.20;59.90;;;;;;4956978;28;81817;-75
2022/08/30 13:31:52;;;;;;;7.07;3.03;;;29.20;59.30;;;;;;4957966;28;83190;-77
2022/08/30 13:34:21;;;;;;;7.43;3.13;;;29.00;59.60;;;;;;4954580;28;81382;-75
2022/08/30 13:36:52;;;;;;;;;;;29.00;60.20;;;;;;4956806;28;81516;-76
2022/08/30 13:39:17;;;;;;;3.83;3.05;;;29.20;61.10;;;;;;4957895;28;81947;-74
2022/08/30 13:41:43;;;;;;;6.20;2.85;;;29.30;60.50;;;;;;4954806;28;81796;-75
2022/08/30 13:44:09;;;;;;;3.97;2.63;;;29.50;59.80;;;;;;4951146;28;82276;-77
2022/08/30 13:46:37;;;;;;;4.25;2.92;;;29.50;60.00;;;;;;4958110;28;81505;-76
2022/08/30 13:49:11;;;;;;;5.40;2.92;;;29.70;59.70;;;;;;4952766;28;83002;-78
2022/08/30 13:51:37;;;;;;;4.50;2.83;;;29.70;59.40;;;;;;4958656;28;81705;-76
2022/08/30 13:54:03;;;;;;;4.63;2.90;;;29.90;59.00;;;;;;4949249;28;81813;-76
2022/08/30 13:56:30;;;;;;;5.95;3.58;;;29.90;58.50;;;;;;4955804;28;83851;-73
2022/08/30 13:59:00;;;;;;;4.00;2.60;;;30.00;57.60;;;;;;4955650;28;82892;-76
2022/08/30 14:01:27;;;;;;;3.78;2.72;;;29.80;59.20;;;;;;4957853;28;82631;-74
2022/08/30 14:03:53;;;;;;;5.07;2.50;;;29.70;60.00;;;;;;4954970;28;82321;-79
2022/08/30 14:06:18;;;;;;;5.18;3.00;;;29.70;59.20;;;;;;4954407;28;81699;-74
2022/08/30 14:08:44;;;;;;;3.67;2.78;;;29.80;58.50;;;;;;4957148;28;81187;-77
2022/08/30 14:11:11;;;;;;;6.13;2.55;;;29.90;57.90;;;;;;4957527;28;81300;-74
2022/08/30 14:13:38;;;;;;;4.63;3.78;;;29.90;58.10;;;;;;4957692;28;81607;-75
2022/08/30 14:16:06;;;;;;;5.18;3.28;;;29.80;57.60;;;;;;4958188;28;83173;-77
2022/08/30 14:18:32;;;;;;;3.60;2.83;;;29.80;57.40;;;;;;4953940;28;83594;-74
2022/08/30 14:20:59;;;;;;;3.90;2.72;;;29.40;59.30;;;;;;4954496;28;82647;-74
2022/08/30 14:23:25;;;;;;;4.30;3.13;;;29.20;59.40;;;;;;4959174;28;83046;-77
2022/08/30 14:25:52;;;;;;;3.95;2.85;;;29.00;59.90;;;;;;4956913;28;82759;-74
2022/08/30 14:28:18;;;;;;;5.97;2.83;;;29.10;59.30;;;;;;4960142;28;82318;-74
2022/08/30 14:30:44;;;;;;;3.85;2.38;;;29.10;59.10;;;;;;4957604;28;82098;-74
2022/08/30 14:33:09;;;;;;;3.97;2.00;;;29.10;59.10;;;;;;4956070;28;82197;-73
2022/08/30 14:35:35;;;;;;;3.33;2.60;;;29.30;58.20;;;;;;4945368;28;81938;-76
2022/08/30 14:38:01;;;;;;;3.65;2.20;;;29.20;57.80;;;;;;4956476;28;81209;-75
2022/08/30 14:40:27;;;;;;;4.50;2.80;;;29.10;57.50;;;;;;4960266;28;81732;-75
2022/08/30 14:42:53;;;;;;;3.60;2.40;;;29.10;59.00;;;;;;4958087;28;82330;-74
2022/08/30 14:45:19;;;;;;;5.55;2.83;;;29.00;58.70;;;;;;4958271;28;84577;-74
2022/08/30 14:47:45;;;;;;;8.77;2.25;;;29.10;58.90;;;;;;4957453;28;82660;-77
2022/08/30 14:50:11;;;;;;;3.42;2.30;;;29.00;58.50;;;;;;4960021;28;81949;-75
2022/08/30 14:52:36;;;;;;;5.00;2.85;;;29.00;58.00;;;;;;4949969;28;82030;-77
2022/08/30 14:55:05;;;;;;;4.28;2.80;;;28.80;59.30;;;;;;4951778;28;81899;-75
2022/08/30 14:57:31;;;;;;;;;;;28.70;58.10;;;;;;4951856;28;81441;-75
2022/08/30 14:59:57;;;;;;;4.30;2.80;;;28.60;59.30;;;;;;4955844;28;82668;-77
2022/08/30 15:02:22;;;;;;;5.47;2.38;;;28.60;58.20;;;;;;4957494;28;81303;-74
2022/08/30 15:04:48;;;;;;;6.50;3.35;;;28.60;59.50;;;;;;4956008;28;81904;-75
2022/08/30 15:07:15;;;;;;;3.78;2.55;;;28.60;59.20;;;;;;4956857;28;81932;-77
2022/08/30 15:09:42;;;;;;;5.43;2.63;;;28.50;58.70;;;;;;4956215;28;82919;-77
2022/08/30 15:12:08;;;;;;;5.93;2.33;;;28.40;58.90;;;;;;4951014;28;82019;-75
2022/08/30 15:14:33;;;;;;;4.13;2.47;;;28.50;58.50;;;;;;4955155;28;81995;-75
2022/08/30 15:17:01;;;;;;;3.63;2.22;;;28.70;58.10;;;;;;4957473;28;82297;-76
2022/08/30 15:19:28;;;;;;;4.47;2.47;;;28.80;58.30;;;;;;4960292;28;81317;-78
2022/08/30 15:21:54;;;;;;;3.97;2.33;;;28.60;57.90;;;;;;4953967;28;82293;-74
2022/08/30 15:24:22;;;;;;;4.22;2.42;;;28.40;57.50;;;;;;4952852;28;81835;-78
2022/08/30 15:26:48;;;;;;;4.03;2.63;;;28.20;58.40;;;;;;4935122;28;82449;-79
2022/08/30 15:29:17;;;;;;;3.53;2.47;;;28.30;58.20;;;;;;4955240;28;82526;-79
2022/08/30 15:31:44;;;;;;;3.85;3.13;;;28.20;58.80;;;;;;4956079;28;82106;-76
2022/08/30 15:34:13;;;;;;;5.70;2.85;;;28.20;58.20;;;;;;4957422;28;83365;-76
2022/08/30 15:36:40;;;;;;;7.35;3.03;;;27.90;59.80;;;;;;4958570;28;83358;-77
2022/08/30 15:39:07;;;;;;;6.68;2.88;;;27.60;61.30;;;;;;4954349;28;81318;-76
2022/08/30 15:41:34;;;;;;;4.10;2.53;;;27.40;61.70;;;;;;4954959;28;81201;-76
2022/08/30 15:44:00;;;;;;;6.40;3.60;;;27.20;63.70;;;;;;4954298;28;82468;-75
2022/08/30 15:46:34;;;;;;;6.50;3.58;;;27.20;65.10;;;;;;4958577;28;82214;-76
2022/08/30 15:49:04;;;;;;;6.80;3.13;;;27.30;67.00;;;;;;4955454;28;81761;-76
2022/08/30 15:51:31;;;;;;;5.93;3.03;;;27.30;66.90;;;;;;4960412;28;82257;-75
2022/08/30 15:53:57;;;;;;;6.63;3.00;;;27.30;66.00;;;;;;4962882;28;82278;-76
2022/08/30 15:56:23;;;;;;;5.75;2.85;;;27.30;66.90;;;;;;4963497;28;82339;-76
2022/08/30 15:58:49;;;;;;;7.15;2.95;;;27.50;67.00;;;;;;4963639;28;82462;-75